Time;durP1;ratioP1;P1;durP2;ratioP2;P2;SDS_P1;SDS_P2;PMS_P1;PMS_P2;Temp;Humidity;BMP_temperature;BMP_pressure;BME280_temperature;BME280_humidity;BME280_pressure;Samples;Min_cycle;Max_cycle;Signal;HPM_P1;HPM_P2
2022/04/05 00:00:11;;;;;;;5.97;1.55;;;;;;;;;;5052087;28;20048;-70
2022/04/05 00:02:37;;;;;;;7.25;1.30;;;;;;;;;;5039676;28;20404;-70
2022/04/05 00:05:03;;;;;;;5.85;1.73;;;;;;;;;;5051877;28;20059;-70
2022/04/05 00:07:29;;;;;;;4.78;1.38;;;;;;;;;;5051006;28;20037;-70
2022/04/05 00:09:55;;;;;;;6.25;1.40;;;;;;;;;;5053767;28;20104;-70
2022/04/05 00:12:22;;;;;;;4.78;1.27;;;;;;;;;;5055025;28;20044;-69
2022/04/05 00:14:48;;;;;;;4.90;2.05;;;;;;;;;;5038283;28;20039;-70
2022/04/05 00:17:14;;;;;;;5.43;1.40;;;;;;;;;;5053862;28;20040;-70
2022/04/05 00:19:40;;;;;;;5.18;1.27;;;;;;;;;;5038759;28;20397;-70
2022/04/05 00:22:06;;;;;;;6.13;1.50;;;;;;;;;;5055762;28;20041;-69
2022/04/05 00:24:33;;;;;;;2.65;1.30;;;;;;;;;;5059323;28;20220;-70
2022/04/05 00:26:59;;;;;;;5.13;1.50;;;;;;;;;;5055824;28;20036;-69
2022/04/05 00:29:25;;;;;;;5.35;1.60;;;;;;;;;;5056690;28;20032;-69
2022/04/05 00:31:51;;;;;;;3.80;1.50;;;;;;;;;;5056557;28;20040;-70
2022/04/05 00:34:18;;;;;;;8.15;1.67;;;;;;;;;;5056416;28;20045;-69
2022/04/05 00:36:44;;;;;;;4.15;1.35;;;;;;;;;;5056337;28;20044;-70
2022/04/05 00:39:11;;;;;;;5.00;1.30;;;;;;;;;;5039239;28;20048;-69
2022/04/05 00:41:37;;;;;;;4.95;1.60;;;;;;;;;;5056105;28;20186;-68
2022/04/05 00:44:03;;;;;;;5.65;1.25;;;;;;;;;;5055746;28;20033;-68
2022/04/05 00:46:30;;;;;;;3.40;1.10;;;;;;;;;;5055874;28;20514;-68
2022/04/05 00:48:57;;;;;;;8.23;1.70;;;;;;;;;;5055452;28;20047;-68
2022/04/05 00:51:24;;;;;;;3.80;1.25;;;;;;;;;;5055799;28;20047;-68
2022/04/05 00:53:55;;;;;;;5.00;1.25;;;;;;;;;;5039359;28;20404;-68
2022/04/05 00:56:22;;;;;;;4.45;1.33;;;;;;;;;;5055720;28;20062;-68
2022/04/05 00:58:49;;;;;;;4.35;1.38;;;;;;;;;;5055190;28;20063;-68
2022/04/05 01:01:21;;;;;;;4.20;1.38;;;;;;;;;;5055323;28;20366;-68
2022/04/05 01:03:49;;;;;;;3.63;1.23;;;;;;;;;;5054304;28;20041;-68
2022/04/05 01:06:19;;;;;;;4.72;1.45;;;;;;;;;;5062812;28;20036;-68
2022/04/05 01:08:48;;;;;;;4.07;1.30;;;;;;;;;;5054859;28;20504;-68
2022/04/05 01:11:15;;;;;;;4.82;1.45;;;;;;;;;;5054942;28;20048;-68
2022/04/05 01:13:41;;;;;;;5.05;1.58;;;;;;;;;;5037998;28;20050;-68
2022/04/05 01:16:07;;;;;;;3.80;1.35;;;;;;;;;;5054983;28;20131;-68
2022/04/05 01:18:34;;;;;;;5.47;1.50;;;;;;;;;;5045634;28;20375;-68
2022/04/05 01:21:01;;;;;;;9.38;1.90;;;;;;;;;;5050885;28;20085;-68
2022/04/05 01:23:27;;;;;;;7.40;1.60;;;;;;;;;;5056181;28;20051;-68
2022/04/05 01:25:53;;;;;;;2.72;1.33;;;;;;;;;;5051866;28;20041;-68
2022/04/05 01:28:22;;;;;;;6.30;1.90;;;;;;;;;;5060255;28;20041;-68
2022/04/05 01:30:49;;;;;;;4.50;1.70;;;;;;;;;;5057395;28;20052;-68
2022/04/05 01:33:15;;;;;;;6.75;2.00;;;;;;;;;;5050601;28;20041;-68
2022/04/05 01:35:42;;;;;;;7.63;2.10;;;;;;;;;;5050443;28;20384;-69
2022/04/05 01:38:09;;;;;;;4.63;1.95;;;;;;;;;;5056147;28;20103;-68
2022/04/05 01:40:35;;;;;;;6.63;2.00;;;;;;;;;;5051117;28;20053;-68
2022/04/05 01:43:01;;;;;;;7.70;1.88;;;;;;;;;;5050572;28;20052;-68
2022/04/05 01:45:27;;;;;;;8.98;2.30;;;;;;;;;;5055655;28;20124;-68
2022/04/05 01:47:53;;;;;;;7.82;2.20;;;;;;;;;;5053879;28;20037;-68
2022/04/05 01:50:19;;;;;;;5.82;1.83;;;;;;;;;;5051126;28;20481;-68
2022/04/05 01:52:45;;;;;;;6.68;2.03;;;;;;;;;;5055717;28;20040;-68
2022/04/05 01:55:11;;;;;;;6.30;1.70;;;;;;;;;;5051330;28;20503;-68
2022/04/05 01:57:37;;;;;;;7.05;1.83;;;;;;;;;;5051041;28;20048;-68
2022/04/05 02:00:05;;;;;;;4.85;1.83;;;;;;;;;;5048484;28;20076;-68
2022/04/05 02:02:31;;;;;;;6.72;2.08;;;;;;;;;;5050089;28;20076;-68
2022/04/05 02:04:57;;;;;;;8.20;2.00;;;;;;;;;;5050880;28;20049;-68
2022/04/05 02:07:23;;;;;;;3.78;1.75;;;;;;;;;;5049161;28;20045;-68
2022/04/05 02:09:50;;;;;;;5.55;2.00;;;;;;;;;;5051522;28;20032;-68
2022/04/05 02:12:16;;;;;;;8.05;1.83;;;;;;;;;;5051950;28;20068;-68
2022/04/05 02:14:42;;;;;;;4.93;1.63;;;;;;;;;;5050899;28;20052;-68
2022/04/05 02:17:09;;;;;;;6.20;1.70;;;;;;;;;;5052130;28;20489;-68
2022/04/05 02:19:36;;;;;;;5.05;1.58;;;;;;;;;;5054247;28;20497;-67
2022/04/05 02:22:02;;;;;;;6.90;1.65;;;;;;;;;;5054796;28;20048;-68
2022/04/05 02:24:28;;;;;;;4.03;1.45;;;;;;;;;;5054306;28;21558;-68
2022/04/05 02:26:54;;;;;;;3.58;1.58;;;;;;;;;;5071800;28;20043;-68
2022/04/05 02:29:21;;;;;;;3.80;1.48;;;;;;;;;;5064857;28;20124;-68
2022/04/05 02:31:47;;;;;;;5.03;1.50;;;;;;;;;;5034201;28;20041;-68
2022/04/05 02:34:13;;;;;;;5.97;1.70;;;;;;;;;;5048838;28;20123;-68
2022/04/05 02:36:39;;;;;;;4.55;1.67;;;;;;;;;;5055274;28;20576;-68
2022/04/05 02:39:06;;;;;;;7.10;1.70;;;;;;;;;;5055097;28;20044;-67
2022/04/05 02:41:32;;;;;;;5.55;1.60;;;;;;;;;;5053663;28;20062;-68
2022/04/05 02:43:59;;;;;;;6.47;1.70;;;;;;;;;;5070919;28;20509;-67
2022/04/05 02:46:25;;;;;;;5.15;1.92;;;;;;;;;;5055047;28;20040;-67
2022/04/05 02:48:54;;;;;;;8.07;1.80;;;;;;;;;;5054939;28;20078;-67
2022/04/05 02:51:21;;;;;;;8.40;1.95;;;;;;;;;;5055145;28;20598;-67
2022/04/05 02:53:47;;;;;;;6.32;1.75;;;;;;;;;;5053511;28;20039;-68
2022/04/05 02:56:13;;;;;;;7.95;2.10;;;;;;;;;;5071751;28;20130;-67
2022/04/05 02:58:40;;;;;;;5.90;1.85;;;;;;;;;;5053034;28;20067;-67
2022/04/05 03:01:06;;;;;;;4.78;1.83;;;;;;;;;;5052613;28;20540;-67
2022/04/05 03:03:33;;;;;;;6.43;2.00;;;;;;;;;;5053255;28;20067;-67
2022/04/05 03:05:59;;;;;;;6.85;2.42;;;;;;;;;;5056568;28;20048;-67
2022/04/05 03:08:25;;;;;;;6.47;2.00;;;;;;;;;;5053446;28;20040;-67
2022/04/05 03:10:51;;;;;;;8.90;2.33;;;;;;;;;;5051155;28;20045;-68
2022/04/05 03:13:17;;;;;;;10.80;2.60;;;;;;;;;;5053283;28;20048;-68
2022/04/05 03:15:43;;;;;;;6.88;2.30;;;;;;;;;;5071576;28;20094;-67
2022/04/05 03:18:09;;;;;;;6.25;2.50;;;;;;;;;;5053374;28;20060;-67
2022/04/05 03:20:35;;;;;;;9.60;2.70;;;;;;;;;;5050382;28;20052;-68
2022/04/05 03:23:01;;;;;;;8.63;2.78;;;;;;;;;;5071470;28;20078;-69
2022/04/05 03:25:28;;;;;;;7.53;2.78;;;;;;;;;;5053963;28;20096;-68
2022/04/05 03:27:54;;;;;;;9.30;2.53;;;;;;;;;;5053110;28;20111;-67
2022/04/05 03:30:22;;;;;;;9.13;2.90;;;;;;;;;;5070468;28;20629;-67
2022/04/05 03:32:48;;;;;;;7.40;3.15;;;;;;;;;;5052135;28;20099;-68
2022/04/05 03:35:14;;;;;;;6.93;3.20;;;;;;;;;;5053974;28;20044;-67
2022/04/05 03:37:41;;;;;;;9.68;3.00;;;;;;;;;;5052465;28;20056;-67
2022/04/05 03:40:08;;;;;;;5.40;2.47;;;;;;;;;;5053201;28;20048;-67
2022/04/05 03:42:34;;;;;;;9.13;2.90;;;;;;;;;;5036093;28;20044;-67
2022/04/05 03:45:01;;;;;;;8.82;2.80;;;;;;;;;;5057320;28;20052;-67
2022/04/05 03:47:27;;;;;;;7.18;2.95;;;;;;;;;;5074695;28;20123;-69
2022/04/05 03:49:54;;;;;;;6.85;3.05;;;;;;;;;;5056847;28;20037;-68
2022/04/05 03:52:20;;;;;;;11.43;3.40;;;;;;;;;;5062474;28;20041;-68
2022/04/05 03:54:46;;;;;;;7.35;3.40;;;;;;;;;;5056741;28;20103;-68
2022/04/05 03:57:12;;;;;;;6.95;3.10;;;;;;;;;;5056185;28;20044;-67
2022/04/05 03:59:38;;;;;;;5.82;3.10;;;;;;;;;;5057066;28;20353;-68
2022/04/05 04:02:05;;;;;;;8.43;3.65;;;;;;;;;;5056156;28;20040;-68
2022/04/05 04:04:31;;;;;;;9.13;3.35;;;;;;;;;;5058706;28;20056;-68
2022/04/05 04:06:57;;;;;;;5.88;3.05;;;;;;;;;;5055639;28;20041;-68
2022/04/05 04:09:23;;;;;;;9.70;2.90;;;;;;;;;;5073544;28;20455;-67
2022/04/05 04:11:50;;;;;;;6.88;3.42;;;;;;;;;;5074682;28;20102;-68
2022/04/05 04:14:16;;;;;;;9.40;3.20;;;;;;;;;;5057062;28;20044;-68
2022/04/05 04:16:42;;;;;;;8.50;3.40;;;;;;;;;;5056251;28;20511;-68
2022/04/05 04:19:08;;;;;;;7.30;3.05;;;;;;;;;;5056643;28;20045;-68
2022/04/05 04:21:34;;;;;;;6.18;3.00;;;;;;;;;;5057199;28;20048;-68
2022/04/05 04:24:01;;;;;;;6.35;2.92;;;;;;;;;;5073734;28;20489;-67
2022/04/05 04:26:27;;;;;;;10.40;3.05;;;;;;;;;;5072849;28;20039;-68
2022/04/05 04:28:55;;;;;;;6.57;2.25;;;;;;;;;;5055744;28;20044;-68
2022/04/05 04:31:21;;;;;;;8.27;2.63;;;;;;;;;;5072752;28;20501;-67
2022/04/05 04:33:47;;;;;;;6.75;2.60;;;;;;;;;;5074719;28;20419;-67
2022/04/05 04:36:14;;;;;;;7.72;2.50;;;;;;;;;;5055622;28;20166;-67
2022/04/05 04:38:40;;;;;;;7.35;2.45;;;;;;;;;;5056485;28;20076;-67
2022/04/05 04:41:06;;;;;;;6.03;2.25;;;;;;;;;;5074100;28;20041;-67
2022/04/05 04:43:32;;;;;;;6.65;2.60;;;;;;;;;;5058406;28;20600;-67
2022/04/05 04:45:58;;;;;;;6.32;2.72;;;;;;;;;;5074094;28;20041;-67
2022/04/05 04:48:24;;;;;;;5.32;2.70;;;;;;;;;;5056743;28;20036;-67
2022/04/05 04:50:50;;;;;;;4.78;2.42;;;;;;;;;;5074385;28;20130;-67
2022/04/05 04:53:17;;;;;;;6.40;2.50;;;;;;;;;;5074081;28;20040;-67
2022/04/05 04:55:43;;;;;;;10.45;2.58;;;;;;;;;;5056156;28;20084;-67
2022/04/05 04:58:09;;;;;;;8.13;2.53;;;;;;;;;;5072385;28;20040;-67
2022/04/05 05:00:35;;;;;;;7.72;2.70;;;;;;;;;;5071482;28;20120;-67
2022/04/05 05:03:01;;;;;;;7.38;2.30;;;;;;;;;;5054929;28;20040;-67
2022/04/05 05:05:28;;;;;;;8.10;2.60;;;;;;;;;;5055244;28;20055;-67
2022/04/05 05:07:55;;;;;;;6.10;1.80;;;;;;;;;;5054564;28;20473;-68
2022/04/05 05:10:23;;;;;;;5.50;1.80;;;;;;;;;;5055769;28;20135;-68
2022/04/05 05:12:49;;;;;;;4.47;1.60;;;;;;;;;;5057149;28;20484;-68
2022/04/05 05:15:18;;;;;;;3.42;1.35;;;;;;;;;;5073028;28;20098;-68
2022/04/05 05:17:45;;;;;;;4.15;1.30;;;;;;;;;;5073185;28;20048;-68
2022/04/05 05:20:11;;;;;;;4.10;1.60;;;;;;;;;;5054205;28;20061;-68
2022/04/05 05:22:39;;;;;;;5.32;1.40;;;;;;;;;;5055437;28;20051;-68
2022/04/05 05:25:05;;;;;;;3.20;1.50;;;;;;;;;;5071886;28;20045;-68
2022/04/05 05:27:31;;;;;;;4.97;1.58;;;;;;;;;;5055482;28;20036;-68
2022/04/05 05:29:57;;;;;;;5.47;1.48;;;;;;;;;;5055489;28;20045;-68
2022/04/05 05:32:23;;;;;;;4.70;1.20;;;;;;;;;;5053755;28;20044;-68
2022/04/05 05:34:49;;;;;;;4.68;1.30;;;;;;;;;;5060309;28;20213;-68
2022/04/05 05:37:15;;;;;;;3.85;1.20;;;;;;;;;;5070600;28;20041;-68
2022/04/05 05:39:42;;;;;;;6.88;1.10;;;;;;;;;;5054785;28;20050;-68
2022/04/05 05:42:08;;;;;;;6.85;1.25;;;;;;;;;;5052823;28;20477;-68
2022/04/05 05:44:35;;;;;;;2.65;1.10;;;;;;;;;;5054227;28;20051;-68
2022/04/05 05:47:01;;;;;;;5.82;1.13;;;;;;;;;;5055570;28;20041;-68
2022/04/05 05:49:28;;;;;;;3.25;0.95;;;;;;;;;;5072019;28;20047;-68
2022/04/05 05:51:54;;;;;;;2.92;1.20;;;;;;;;;;5071796;28;20037;-68
2022/04/05 05:54:20;;;;;;;4.07;1.25;;;;;;;;;;5054113;28;20063;-69
2022/04/05 05:56:46;;;;;;;2.38;1.17;;;;;;;;;;5050140;28;20091;-68
2022/04/05 05:59:12;;;;;;;4.43;1.50;;;;;;;;;;5071369;28;20044;-68
2022/04/05 06:01:38;;;;;;;5.85;1.90;;;;;;;;;;5070693;28;20041;-68
2022/04/05 06:04:04;;;;;;;6.75;1.90;;;;;;;;;;5055772;28;20045;-68
2022/04/05 06:06:31;;;;;;;5.78;1.92;;;;;;;;;;5051668;28;20493;-68
2022/04/05 06:08:57;;;;;;;4.85;1.90;;;;;;;;;;5055240;28;20119;-69
2022/04/05 06:11:24;;;;;;;2.95;1.70;;;;;;;;;;5052551;28;20443;-69
2022/04/05 06:13:50;;;;;;;5.82;1.50;;;;;;;;;;5069702;28;20060;-68
2022/04/05 06:16:16;;;;;;;4.75;1.45;;;;;;;;;;5049355;28;20508;-68
2022/04/05 06:18:42;;;;;;;5.93;1.38;;;;;;;;;;5052362;28;20127;-68
2022/04/05 06:21:09;;;;;;;4.38;1.10;;;;;;;;;;5051783;28;20083;-69
2022/04/05 06:23:35;;;;;;;3.63;1.40;;;;;;;;;;5070343;28;20086;-69
2022/04/05 06:26:01;;;;;;;3.97;1.13;;;;;;;;;;5068205;28;20040;-69
2022/04/05 06:28:27;;;;;;;2.42;1.13;;;;;;;;;;5052336;28;20071;-69
2022/04/05 06:30:53;;;;;;;2.65;0.90;;;;;;;;;;5069537;28;20044;-68
2022/04/05 06:33:22;;;;;;;4.18;0.90;;;;;;;;;;5069626;28;20033;-68
2022/04/05 06:35:49;;;;;;;1.75;0.80;;;;;;;;;;5053176;28;20064;-69
2022/04/05 06:38:15;;;;;;;2.78;0.90;;;;;;;;;;5069364;28;20540;-69
2022/04/05 06:40:43;;;;;;;2.00;0.70;;;;;;;;;;5069153;28;20455;-69
2022/04/05 06:43:09;;;;;;;1.17;0.85;;;;;;;;;;5069163;28;20432;-69
2022/04/05 06:45:35;;;;;;;3.13;0.75;;;;;;;;;;5051903;28;20044;-69
2022/04/05 06:48:02;;;;;;;0.85;0.50;;;;;;;;;;5066195;28;20060;-69
2022/04/05 06:50:28;;;;;;;3.20;1.10;;;;;;;;;;5053721;28;20044;-68
2022/04/05 06:52:55;;;;;;;4.80;0.73;;;;;;;;;;5051716;28;20044;-69
2022/04/05 06:55:22;;;;;;;2.55;0.90;;;;;;;;;;5051470;28;20413;-69
2022/04/05 06:57:48;;;;;;;1.88;1.00;;;;;;;;;;5052982;28;20105;-69
2022/04/05 07:00:14;;;;;;;3.15;0.90;;;;;;;;;;5071376;28;20051;-69
2022/04/05 07:02:41;;;;;;;2.08;1.00;;;;;;;;;;5052405;28;20380;-69
2022/04/05 07:05:09;;;;;;;1.90;1.20;;;;;;;;;;5070364;28;20044;-69
2022/04/05 07:07:36;;;;;;;1.65;0.70;;;;;;;;;;5052914;28;20044;-69
2022/04/05 07:10:02;;;;;;;3.03;0.88;;;;;;;;;;5053165;28;20440;-69
2022/04/05 07:12:28;;;;;;;2.83;0.85;;;;;;;;;;5067570;28;20104;-69
2022/04/05 07:14:55;;;;;;;3.53;0.90;;;;;;;;;;5052279;28;20056;-69
2022/04/05 07:17:21;;;;;;;3.47;0.90;;;;;;;;;;5035018;28;20053;-69
2022/04/05 07:19:47;;;;;;;2.35;0.95;;;;;;;;;;5052962;28;20056;-69
2022/04/05 07:22:13;;;;;;;4.25;1.10;;;;;;;;;;5052814;28;20391;-69
2022/04/05 07:24:39;;;;;;;2.17;1.00;;;;;;;;;;5050580;28;20033;-69
2022/04/05 07:27:05;;;;;;;2.97;1.13;;;;;;;;;;5047410;28;20029;-69
2022/04/05 07:29:31;;;;;;;2.13;1.05;;;;;;;;;;5053060;28;20127;-69
2022/04/05 07:31:57;;;;;;;1.30;0.88;;;;;;;;;;5068216;28;20045;-69
2022/04/05 07:34:23;;;;;;;4.40;1.20;;;;;;;;;;5033553;28;20489;-69
2022/04/05 07:36:49;;;;;;;2.67;1.13;;;;;;;;;;5068483;28;20044;-69
2022/04/05 07:39:16;;;;;;;2.67;1.20;;;;;;;;;;5069699;28;20040;-69
2022/04/05 07:41:42;;;;;;;2.92;1.30;;;;;;;;;;5066941;28;20362;-69
2022/04/05 07:44:08;;;;;;;3.25;1.30;;;;;;;;;;5070078;28;20090;-69
2022/04/05 07:46:35;;;;;;;7.40;1.75;;;;;;;;;;5033060;28;20044;-69
2022/04/05 07:49:01;;;;;;;3.50;1.27;;;;;;;;;;5050149;28;20111;-69
2022/04/05 07:51:27;;;;;;;4.38;1.50;;;;;;;;;;5049309;28;20086;-69
2022/04/05 07:53:53;;;;;;;3.50;1.10;;;;;;;;;;5052228;28;20119;-69
2022/04/05 07:56:19;;;;;;;4.63;1.42;;;;;;;;;;5049580;28;20052;-69
2022/04/05 07:58:45;;;;;;;2.17;1.10;;;;;;;;;;5068281;28;20043;-69
2022/04/05 08:01:12;;;;;;;3.20;1.40;;;;;;;;;;5051291;28;20045;-69
2022/04/05 08:03:39;;;;;;;6.65;1.85;;;;;;;;;;5051401;28;20041;-69
2022/04/05 08:06:05;;;;;;;4.10;1.85;;;;;;;;;;5066227;28;20033;-69
2022/04/05 08:08:31;;;;;;;4.45;1.73;;;;;;;;;;5070596;28;20109;-69
2022/04/05 08:10:58;;;;;;;2.47;1.45;;;;;;;;;;5067836;28;20043;-69
2022/04/05 08:13:26;;;;;;;4.28;1.60;;;;;;;;;;5037707;28;20040;-69
2022/04/05 08:15:52;;;;;;;2.25;1.33;;;;;;;;;;5050388;28;20072;-69
2022/04/05 08:18:19;;;;;;;6.72;1.73;;;;;;;;;;5052263;28;20608;-68
2022/04/05 08:20:45;;;;;;;3.42;1.67;;;;;;;;;;5069018;28;20053;-69
2022/04/05 08:23:11;;;;;;;3.92;2.05;;;;;;;;;;5051939;28;20049;-69
2022/04/05 08:25:38;;;;;;;4.47;1.90;;;;;;;;;;5050519;28;20102;-69
2022/04/05 08:28:04;;;;;;;2.83;1.70;;;;;;;;;;5059313;28;20489;-68
2022/04/05 08:30:31;;;;;;;4.43;1.90;;;;;;;;;;5055552;28;20039;-69
2022/04/05 08:32:57;;;;;;;4.00;1.98;;;;;;;;;;5052766;28;20044;-68
2022/04/05 08:35:23;;;;;;;4.95;2.22;;;;;;;;;;5052305;28;20048;-68
2022/04/05 08:37:51;;;;;;;3.90;2.08;;;;;;;;;;5059076;28;20485;-69
2022/04/05 08:40:17;;;;;;;2.65;2.10;;;;;;;;;;5050448;28;20045;-69
2022/04/05 08:42:48;;;;;;;3.78;2.25;;;;;;;;;;5049417;28;20095;-68
2022/04/05 08:45:14;;;;;;;3.42;2.10;;;;;;;;;;5057899;28;20044;-69
2022/04/05 08:47:46;;;;;;;4.20;2.88;;;;;;;;;;5057409;28;20443;-69
2022/04/05 08:50:13;;;;;;;5.25;3.08;;;;;;;;;;5065618;28;20102;-69
2022/04/05 08:52:39;;;;;;;3.38;2.58;;;;;;;;;;5072423;28;20079;-69
2022/04/05 08:55:05;;;;;;;4.18;2.95;;;;;;;;;;5055463;28;20036;-69
2022/04/05 08:57:31;;;;;;;5.35;2.88;;;;;;;;;;5062530;28;20130;-69
2022/04/05 08:59:57;;;;;;;5.45;3.20;;;;;;;;;;5056152;28;20098;-69
2022/04/05 09:02:24;;;;;;;2.80;2.47;;;;;;;;;;5058491;28;20032;-69
2022/04/05 09:04:51;;;;;;;4.53;2.97;;;;;;;;;;5061108;28;20046;-69
2022/04/05 09:07:25;;;;;;;4.43;3.20;;;;;;;;;;5060683;28;20092;-68
2022/04/05 09:10:06;;;;;;;5.03;3.33;;;;;;;;;;5041799;28;20041;-69
2022/04/05 09:12:51;;;;;;;4.63;3.55;;;;;;;;;;5059307;28;20048;-69
2022/04/05 09:15:17;;;;;;;4.35;3.13;;;;;;;;;;5060733;28;20047;-69
2022/04/05 09:17:44;;;;;;;5.13;4.20;;;;;;;;;;5055012;28;20043;-68
2022/04/05 09:20:11;;;;;;;6.47;4.70;;;;;;;;;;5061267;28;20056;-68
2022/04/05 09:22:38;;;;;;;6.22;4.70;;;;;;;;;;5059448;28;20389;-68
2022/04/05 09:25:08;;;;;;;7.65;5.05;;;;;;;;;;5054934;28;20037;-68
2022/04/05 09:27:51;;;;;;;7.03;5.47;;;;;;;;;;5069869;28;20424;-69
2022/04/05 09:30:18;;;;;;;7.88;5.65;;;;;;;;;;5039695;28;20555;-69
2022/04/05 09:32:48;;;;;;;7.72;6.03;;;;;;;;;;5053958;28;20423;-68
2022/04/05 09:35:15;;;;;;;9.07;6.38;;;;;;;;;;5048857;28;20049;-68
2022/04/05 09:37:41;;;;;;;8.13;6.10;;;;;;;;;;5050224;28;20076;-68
2022/04/05 09:40:23;;;;;;;9.88;6.35;;;;;;;;;;5051661;28;20052;-68
2022/04/05 09:43:07;;;;;;;11.00;7.35;;;;;;;;;;5052469;28;20078;-67
2022/04/05 09:45:58;;;;;;;13.02;8.15;;;;;;;;;;5045895;28;20048;-67
2022/04/05 09:48:35;;;;;;;13.38;8.18;;;;;;;;;;5063482;28;20071;-67
2022/04/05 09:51:12;;;;;;;11.95;8.90;;;;;;;;;;5050984;28;20052;-67
2022/04/05 09:53:52;;;;;;;11.82;8.20;;;;;;;;;;5054554;28;20048;-67
2022/04/05 09:56:26;;;;;;;10.35;6.90;;;;;;;;;;5073709;28;20399;-67
2022/04/05 09:58:54;;;;;;;7.72;6.35;;;;;;;;;;5066739;28;20055;-67
2022/04/05 10:01:21;;;;;;;8.13;6.15;;;;;;;;;;5049836;28;20511;-67
2022/04/05 10:04:08;;;;;;;7.03;4.90;;;;;;;;;;5051602;28;20631;-67
2022/04/05 10:06:38;;;;;;;;;;;;;;;;;;5048073;28;20107;-67
2022/04/05 10:09:04;;;;;;;5.90;5.05;;;;;;;;;;5050518;28;19922;-68
2022/04/05 10:11:31;;;;;;;5.72;4.30;;;;;;;;;;5069204;28;20043;-68
2022/04/05 10:13:58;;;;;;;6.10;4.60;;;;;;;;;;5066586;28;20446;-68
2022/04/05 10:16:25;;;;;;;5.93;4.68;;;;;;;;;;5052342;28;20127;-68
2022/04/05 10:18:52;;;;;;;5.30;4.43;;;;;;;;;;5049758;28;20102;-68
2022/04/05 10:21:21;;;;;;;6.82;4.60;;;;;;;;;;5034393;28;20080;-67
2022/04/05 10:23:47;;;;;;;6.20;4.53;;;;;;;;;;5067186;28;20048;-67
2022/04/05 10:26:20;;;;;;;6.03;4.60;;;;;;;;;;5048738;28;20051;-68
2022/04/05 10:28:47;;;;;;;6.65;4.88;;;;;;;;;;5051641;28;20059;-67
2022/04/05 10:31:32;;;;;;;7.13;4.40;;;;;;;;;;5033936;28;20051;-68
2022/04/05 10:34:16;;;;;;;6.68;4.60;;;;;;;;;;5064397;28;20520;-68
2022/04/05 10:37:01;;;;;;;6.82;4.30;;;;;;;;;;5066495;28;20531;-68
2022/04/05 10:39:27;;;;;;;6.90;4.70;;;;;;;;;;5067268;28;20124;-68
2022/04/05 10:42:08;;;;;;;7.70;5.20;;;;;;;;;;5049544;28;20081;-67
2022/04/05 10:44:35;;;;;;;8.32;4.53;;;;;;;;;;5042625;28;20621;-68
2022/04/05 10:47:04;;;;;;;6.80;4.70;;;;;;;;;;5051899;28;20101;-68
2022/04/05 10:49:39;;;;;;;8.85;5.07;;;;;;;;;;5050170;28;20056;-67
2022/04/05 10:52:07;;;;;;;8.70;5.20;;;;;;;;;;5071527;28;20044;-67
2022/04/05 10:54:37;;;;;;;10.80;5.32;;;;;;;;;;5067613;28;20399;-67
2022/04/05 10:57:16;;;;;;;8.18;5.78;;;;;;;;;;5057355;28;20074;-67
2022/04/05 10:59:47;;;;;;;8.93;4.75;;;;;;;;;;5048128;28;20041;-68
2022/04/05 11:02:29;;;;;;;11.27;4.88;;;;;;;;;;5070476;28;20074;-68
2022/04/05 11:05:23;;;;;;;10.13;6.03;;;;;;;;;;5035393;28;20041;-67
2022/04/05 11:07:52;;;;;;;12.32;5.68;;;;;;;;;;5044852;28;20049;-67
2022/04/05 11:10:22;;;;;;;9.55;5.30;;;;;;;;;;5064121;28;20043;-68
2022/04/05 11:12:48;;;;;;;11.32;5.93;;;;;;;;;;5035481;28;20044;-68
2022/04/05 11:15:14;;;;;;;13.98;6.35;;;;;;;;;;5047307;28;20080;-68
2022/04/05 11:17:42;;;;;;;14.55;6.22;;;;;;;;;;5050492;28;20040;-68
2022/04/05 11:20:09;;;;;;;12.02;5.57;;;;;;;;;;5052749;28;20194;-68
2022/04/05 11:22:36;;;;;;;11.38;5.55;;;;;;;;;;5069468;28;20052;-68
2022/04/05 11:25:04;;;;;;;11.32;5.63;;;;;;;;;;5052408;28;20049;-68
2022/04/05 11:27:32;;;;;;;11.68;6.10;;;;;;;;;;5051034;28;20048;-67
2022/04/05 11:30:17;;;;;;;12.90;5.45;;;;;;;;;;5069700;28;20041;-67
2022/04/05 11:33:02;;;;;;;11.05;5.40;;;;;;;;;;5049881;28;20037;-67
2022/04/05 11:35:28;;;;;;;12.85;5.68;;;;;;;;;;5052213;28;20428;-67
2022/04/05 11:37:54;;;;;;;9.02;5.75;;;;;;;;;;5052180;28;20051;-67
2022/04/05 11:40:20;;;;;;;10.75;5.20;;;;;;;;;;5052046;28;20071;-67
2022/04/05 11:42:46;;;;;;;11.43;5.55;;;;;;;;;;5052381;28;20036;-67
2022/04/05 11:45:12;;;;;;;11.93;5.68;;;;;;;;;;5052827;28;20455;-67
2022/04/05 11:47:38;;;;;;;13.45;5.72;;;;;;;;;;5036157;28;20044;-67
2022/04/05 11:50:12;;;;;;;13.10;5.97;;;;;;;;;;5052145;28;20036;-67
2022/04/05 11:52:38;;;;;;;12.13;5.97;;;;;;;;;;5048819;28;20037;-67
2022/04/05 11:58:02;;;;;;;13.65;6.20;;;;;;;;;;5051150;28;20047;-68
2022/04/05 12:00:28;;;;;;;12.10;6.13;;;;;;;;;;5051917;28;20153;-68
2022/04/05 12:03:12;;;;;;;9.73;5.20;;;;;;;;;;5071275;28;20072;-68
2022/04/05 12:05:45;;;;;;;12.27;5.60;;;;;;;;;;5070101;28;20454;-68
2022/04/05 12:08:12;;;;;;;14.23;6.40;;;;;;;;;;5072224;28;20048;-68
2022/04/05 12:10:38;;;;;;;11.95;5.55;;;;;;;;;;5053659;28;20056;-68
2022/04/05 12:13:04;;;;;;;13.05;6.10;;;;;;;;;;5047658;28;20044;-68
2022/04/05 12:15:32;;;;;;;16.48;6.55;;;;;;;;;;5048221;28;20118;-68
2022/04/05 12:18:17;;;;;;;16.60;7.00;;;;;;;;;;5052196;28;20554;-68
2022/04/05 12:21:03;;;;;;;15.55;6.70;;;;;;;;;;5069307;28;20064;-68
2022/04/05 12:23:36;;;;;;;18.52;6.72;;;;;;;;;;5068846;28;20044;-68
2022/04/05 12:26:06;;;;;;;15.20;6.20;;;;;;;;;;5044546;28;20119;-68
2022/04/05 12:28:59;;;;;;;15.85;6.07;;;;;;;;;;5047208;28;20066;-68
2022/04/05 12:31:28;;;;;;;18.00;6.82;;;;;;;;;;5027221;28;20057;-68
2022/04/05 12:33:56;;;;;;;13.65;5.90;;;;;;;;;;5067191;28;20051;-69
2022/04/05 12:36:22;;;;;;;13.80;6.53;;;;;;;;;;5047615;28;20052;-70
2022/04/05 12:38:49;;;;;;;15.73;7.35;;;;;;;;;;5043705;28;20098;-68
2022/04/05 12:41:20;;;;;;;16.23;6.05;;;;;;;;;;5048983;28;20383;-68
2022/04/05 12:44:03;;;;;;;14.95;6.40;;;;;;;;;;5049184;28;20097;-68
2022/04/05 12:46:35;;;;;;;13.45;6.13;;;;;;;;;;5050703;28;20508;-68
2022/04/05 12:49:15;;;;;;;13.02;6.15;;;;;;;;;;5044983;28;20464;-68
2022/04/05 12:51:41;;;;;;;12.93;6.28;;;;;;;;;;5063871;28;20464;-68
2022/04/05 12:54:23;;;;;;;14.85;6.15;;;;;;;;;;5049687;28;20118;-68
2022/04/05 12:56:49;;;;;;;18.25;7.60;;;;;;;;;;5048788;28;20119;-68
2022/04/05 12:59:24;;;;;;;13.48;6.03;;;;;;;;;;5068776;28;20036;-68
2022/04/05 13:01:54;;;;;;;20.42;6.85;;;;;;;;;;5053109;28;20036;-67
2022/04/05 13:04:22;;;;;;;14.52;6.10;;;;;;;;;;5069446;28;21040;-68
2022/04/05 13:06:52;;;;;;;16.85;6.90;;;;;;;;;;5035022;28;20048;-68
2022/04/05 13:09:26;;;;;;;14.18;6.13;;;;;;;;;;5051649;28;20496;-68
2022/04/05 13:12:06;;;;;;;14.07;6.20;;;;;;;;;;5067377;28;20051;-68
2022/04/05 13:14:32;;;;;;;13.15;6.45;;;;;;;;;;5050488;28;20457;-68
2022/04/05 13:17:01;;;;;;;11.00;6.20;;;;;;;;;;5032563;28;20181;-68
2022/04/05 13:19:27;;;;;;;17.25;6.72;;;;;;;;;;5050046;28;20127;-68
2022/04/05 13:21:54;;;;;;;15.30;6.95;;;;;;;;;;5067558;28;20071;-67
2022/04/05 13:24:22;;;;;;;10.38;5.65;;;;;;;;;;5032843;28;20040;-67
2022/04/05 13:26:49;;;;;;;11.80;6.03;;;;;;;;;;5068187;28;20043;-68
2022/04/05 13:29:19;;;;;;;10.13;5.50;;;;;;;;;;5050933;28;20036;-68
2022/04/05 13:31:49;;;;;;;10.18;6.07;;;;;;;;;;5049786;28;20043;-68
2022/04/05 13:34:17;;;;;;;11.45;5.68;;;;;;;;;;5066961;28;20130;-68
2022/04/05 13:36:43;;;;;;;8.45;5.40;;;;;;;;;;5050364;28;20125;-68
2022/04/05 13:39:10;;;;;;;12.80;6.00;;;;;;;;;;5049839;28;20048;-68
2022/04/05 13:41:36;;;;;;;9.23;5.13;;;;;;;;;;5032373;28;21787;-68
2022/04/05 13:44:03;;;;;;;7.88;5.10;;;;;;;;;;5032766;28;20654;-68
2022/04/05 13:46:31;;;;;;;7.88;4.90;;;;;;;;;;5049410;28;20040;-68
2022/04/05 13:48:57;;;;;;;9.98;5.72;;;;;;;;;;5064744;28;20137;-68
2022/04/05 13:51:24;;;;;;;12.02;6.63;;;;;;;;;;5048026;28;20358;-68
2022/04/05 13:53:51;;;;;;;9.48;5.57;;;;;;;;;;5045666;28;20072;-68
2022/04/05 13:56:17;;;;;;;12.77;6.30;;;;;;;;;;5043349;28;20048;-68
2022/04/05 13:58:43;;;;;;;11.43;5.93;;;;;;;;;;5042769;28;20064;-68
2022/04/05 14:01:09;;;;;;;13.25;6.97;;;;;;;;;;5044733;28;20574;-68
2022/04/05 14:03:36;;;;;;;13.80;7.63;;;;;;;;;;5046483;28;20056;-68
2022/04/05 14:06:02;;;;;;;10.07;5.90;;;;;;;;;;5063696;28;20040;-68
2022/04/05 14:08:28;;;;;;;12.60;6.75;;;;;;;;;;5048161;28;20036;-68
2022/04/05 14:10:54;;;;;;;14.70;7.20;;;;;;;;;;5065866;28;20034;-68
2022/04/05 14:13:20;;;;;;;12.00;6.85;;;;;;;;;;5048096;28;20058;-68
2022/04/05 14:15:46;;;;;;;14.32;7.28;;;;;;;;;;5065747;28;20041;-68
2022/04/05 14:18:12;;;;;;;15.15;7.93;;;;;;;;;;5047168;28;20039;-68
2022/04/05 14:20:39;;;;;;;14.57;7.13;;;;;;;;;;5065187;28;20036;-68
2022/04/05 14:23:05;;;;;;;14.60;6.82;;;;;;;;;;5046382;28;20501;-68
2022/04/05 14:25:31;;;;;;;12.13;6.70;;;;;;;;;;5045176;28;20102;-68
2022/04/05 14:27:57;;;;;;;13.00;6.70;;;;;;;;;;5046907;28;20067;-68
2022/04/05 14:30:24;;;;;;;16.00;8.07;;;;;;;;;;5046130;28;20056;-68
2022/04/05 14:32:50;;;;;;;13.52;7.05;;;;;;;;;;5031141;28;20503;-68
2022/04/05 14:35:16;;;;;;;12.10;6.43;;;;;;;;;;5047829;28;20053;-68
2022/04/05 14:37:42;;;;;;;13.02;7.75;;;;;;;;;;5065004;28;20044;-68
2022/04/05 14:40:09;;;;;;;14.50;7.40;;;;;;;;;;5014284;28;20521;-68
2022/04/05 14:42:35;;;;;;;14.65;7.50;;;;;;;;;;5047268;28;20036;-68
2022/04/05 14:45:01;;;;;;;15.00;7.45;;;;;;;;;;5047839;28;20066;-68
2022/04/05 14:47:27;;;;;;;14.75;8.13;;;;;;;;;;5048235;28;20377;-69